sensor_id;sensor_type;location;lat;lon;timestamp;P1;durP1;ratioP1;P2;durP2;ratioP2
75814;SDS011;64451;45.574;14.224;2023-02-02T00:01:56;39.58;;;11.65;;
75814;SDS011;64451;45.574;14.224;2023-02-02T00:03:58;33.60;;;13.20;;
75814;SDS011;64451;45.574;14.224;2023-02-02T00:05:58;26.83;;;9.45;;
75814;SDS011;64451;45.574;14.224;2023-02-02T00:07:58;47.40;;;11.10;;
75814;SDS011;64451;45.574;14.224;2023-02-02T00:09:59;28.75;;;11.65;;
75814;SDS011;64451;45.574;14.224;2023-02-02T00:12:00;27.27;;;11.30;;
75814;SDS011;64451;45.574;14.224;2023-02-02T00:14:00;27.60;;;9.60;;
75814;SDS011;64451;45.574;14.224;2023-02-02T00:18:20;29.13;;;11.57;;
75814;SDS011;64451;45.574;14.224;2023-02-02T00:20:20;19.60;;;8.68;;
75814;SDS011;64451;45.574;14.224;2023-02-02T00:22:21;34.72;;;11.02;;
75814;SDS011;64451;45.574;14.224;2023-02-02T00:24:22;24.92;;;10.77;;
75814;SDS011;64451;45.574;14.224;2023-02-02T00:26:23;24.42;;;10.30;;
75814;SDS011;64451;45.574;14.224;2023-02-02T00:28:23;55.42;;;13.48;;
75814;SDS011;64451;45.574;14.224;2023-02-02T00:30:23;24.58;;;10.55;;
75814;SDS011;64451;45.574;14.224;2023-02-02T00:32:24;34.55;;;9.23;;
75814;SDS011;64451;45.574;14.224;2023-02-02T00:34:24;26.45;;;10.57;;
75814;SDS011;64451;45.574;14.224;2023-02-02T00:36:25;29.10;;;8.88;;
75814;SDS011;64451;45.574;14.224;2023-02-02T00:38:25;23.95;;;8.18;;
75814;SDS011;64451;45.574;14.224;2023-02-02T00:40:25;36.15;;;9.45;;
75814;SDS011;64451;45.574;14.224;2023-02-02T00:42:26;26.15;;;9.45;;
75814;SDS011;64451;45.574;14.224;2023-02-02T00:44:27;23.55;;;12.30;;
75814;SDS011;64451;45.574;14.224;2023-02-02T00:46:46;36.15;;;9.93;;
75814;SDS011;64451;45.574;14.224;2023-02-02T00:48:46;18.05;;;9.05;;
75814;SDS011;64451;45.574;14.224;2023-02-02T00:50:46;27.98;;;9.95;;
75814;SDS011;64451;45.574;14.224;2023-02-02T00:52:47;27.45;;;11.68;;
75814;SDS011;64451;45.574;14.224;2023-02-02T00:54:47;29.38;;;10.85;;
75814;SDS011;64451;45.574;14.224;2023-02-02T00:56:48;26.00;;;10.93;;
75814;SDS011;64451;45.574;14.224;2023-02-02T00:58:48;22.60;;;11.32;;
75814;SDS011;64451;45.574;14.224;2023-02-02T01:00:48;25.00;;;11.70;;
75814;SDS011;64451;45.574;14.224;2023-02-02T01:02:49;16.38;;;8.13;;
75814;SDS011;64451;45.574;14.224;2023-02-02T01:04:50;26.13;;;11.35;;
75814;SDS011;64451;45.574;14.224;2023-02-02T01:06:51;18.08;;;9.15;;
75814;SDS011;64451;45.574;14.224;2023-02-02T01:08:51;23.55;;;11.23;;
75814;SDS011;64451;45.574;14.224;2023-02-02T01:10:52;34.95;;;11.88;;
75814;SDS011;64451;45.574;14.224;2023-02-02T01:12:52;17.80;;;9.30;;
75814;SDS011;64451;45.574;14.224;2023-02-02T01:14:53;25.42;;;9.60;;
75814;SDS011;64451;45.574;14.224;2023-02-02T01:16:53;27.15;;;10.15;;
75814;SDS011;64451;45.574;14.224;2023-02-02T01:18:53;19.65;;;9.00;;
75814;SDS011;64451;45.574;14.224;2023-02-02T01:20:58;40.03;;;12.30;;
75814;SDS011;64451;45.574;14.224;2023-02-02T01:23:03;24.85;;;9.90;;
75814;SDS011;64451;45.574;14.224;2023-02-02T01:25:04;26.10;;;11.05;;
75814;SDS011;64451;45.574;14.224;2023-02-02T01:27:04;28.83;;;11.63;;
75814;SDS011;64451;45.574;14.224;2023-02-02T01:29:05;30.58;;;11.57;;
75814;SDS011;64451;45.574;14.224;2023-02-02T01:31:10;40.05;;;11.60;;
75814;SDS011;64451;45.574;14.224;2023-02-02T01:33:12;33.03;;;13.40;;
75814;SDS011;64451;45.574;14.224;2023-02-02T01:35:13;49.53;;;12.55;;
75814;SDS011;64451;45.574;14.224;2023-02-02T01:37:13;27.27;;;13.65;;
75814;SDS011;64451;45.574;14.224;2023-02-02T01:39:14;33.53;;;13.55;;
75814;SDS011;64451;45.574;14.224;2023-02-02T01:41:19;36.63;;;14.40;;
75814;SDS011;64451;45.574;14.224;2023-02-02T01:43:23;65.20;;;12.80;;
75814;SDS011;64451;45.574;14.224;2023-02-02T01:45:28;35.78;;;12.43;;
75814;SDS011;64451;45.574;14.224;2023-02-02T01:47:30;33.20;;;14.93;;
75814;SDS011;64451;45.574;14.224;2023-02-02T01:49:37;35.35;;;12.43;;
75814;SDS011;64451;45.574;14.224;2023-02-02T01:51:41;27.90;;;11.38;;
75814;SDS011;64451;45.574;14.224;2023-02-02T01:53:42;25.27;;;10.82;;
75814;SDS011;64451;45.574;14.224;2023-02-02T01:55:45;30.02;;;13.93;;
75814;SDS011;64451;45.574;14.224;2023-02-02T01:59:51;29.75;;;10.82;;
75814;SDS011;64451;45.574;14.224;2023-02-02T02:01:53;30.40;;;11.18;;
75814;SDS011;64451;45.574;14.224;2023-02-02T02:03:54;55.85;;;14.32;;
75814;SDS011;64451;45.574;14.224;2023-02-02T02:05:57;34.17;;;12.40;;
75814;SDS011;64451;45.574;14.224;2023-02-02T02:08:04;33.03;;;13.45;;
75814;SDS011;64451;45.574;14.224;2023-02-02T02:10:12;29.77;;;12.07;;
75814;SDS011;64451;45.574;14.224;2023-02-02T02:12:13;45.90;;;17.58;;
75814;SDS011;64451;45.574;14.224;2023-02-02T02:14:14;38.40;;;15.90;;
75814;SDS011;64451;45.574;14.224;2023-02-02T02:19:13;19.63;;;7.70;;
75814;SDS011;64451;45.574;14.224;2023-02-02T02:21:31;21.80;;;11.07;;
75814;SDS011;64451;45.574;14.224;2023-02-02T02:26:56;25.85;;;11.10;;
75814;SDS011;64451;45.574;14.224;2023-02-02T02:29:25;36.97;;;11.13;;
75814;SDS011;64451;45.574;14.224;2023-02-02T02:32:00;24.65;;;12.10;;
75814;SDS011;64451;45.574;14.224;2023-02-02T02:40:59;50.60;;;12.93;;
75814;SDS011;64451;45.574;14.224;2023-02-02T02:43:18;40.60;;;11.23;;
75814;SDS011;64451;45.574;14.224;2023-02-02T02:45:23;29.30;;;11.60;;
75814;SDS011;64451;45.574;14.224;2023-02-02T02:47:27;26.80;;;10.15;;
75814;SDS011;64451;45.574;14.224;2023-02-02T02:49:30;24.92;;;10.13;;
75814;SDS011;64451;45.574;14.224;2023-02-02T02:53:49;34.67;;;11.63;;
75814;SDS011;64451;45.574;14.224;2023-02-02T02:56:03;40.63;;;13.75;;
75814;SDS011;64451;45.574;14.224;2023-02-02T02:58:32;29.45;;;11.98;;
75814;SDS011;64451;45.574;14.224;2023-02-02T03:00:54;22.17;;;10.48;;
75814;SDS011;64451;45.574;14.224;2023-02-02T03:08:23;23.05;;;9.50;;
75814;SDS011;64451;45.574;14.224;2023-02-02T03:10:39;46.38;;;8.98;;
75814;SDS011;64451;45.574;14.224;2023-02-02T03:12:42;45.22;;;10.82;;
75814;SDS011;64451;45.574;14.224;2023-02-02T03:14:46;39.75;;;8.82;;
75814;SDS011;64451;45.574;14.224;2023-02-02T03:16:49;16.48;;;9.20;;
75814;SDS011;64451;45.574;14.224;2023-02-02T03:18:51;39.53;;;10.02;;
75814;SDS011;64451;45.574;14.224;2023-02-02T03:20:52;30.25;;;10.82;;
75814;SDS011;64451;45.574;14.224;2023-02-02T03:22:52;19.23;;;8.45;;
75814;SDS011;64451;45.574;14.224;2023-02-02T03:24:53;42.03;;;10.38;;
75814;SDS011;64451;45.574;14.224;2023-02-02T03:26:53;30.27;;;10.05;;
75814;SDS011;64451;45.574;14.224;2023-02-02T03:28:54;36.47;;;10.10;;
75814;SDS011;64451;45.574;14.224;2023-02-02T03:30:56;29.90;;;8.90;;
75814;SDS011;64451;45.574;14.224;2023-02-02T03:33:00;26.40;;;10.38;;
75814;SDS011;64451;45.574;14.224;2023-02-02T03:35:00;31.75;;;10.10;;
75814;SDS011;64451;45.574;14.224;2023-02-02T03:37:00;27.80;;;10.88;;
75814;SDS011;64451;45.574;14.224;2023-02-02T03:39:01;26.67;;;9.07;;
75814;SDS011;64451;45.574;14.224;2023-02-02T03:41:01;32.58;;;10.05;;
75814;SDS011;64451;45.574;14.224;2023-02-02T03:43:01;27.65;;;8.80;;
75814;SDS011;64451;45.574;14.224;2023-02-02T03:45:02;20.92;;;10.02;;
75814;SDS011;64451;45.574;14.224;2023-02-02T03:47:02;17.98;;;8.85;;
75814;SDS011;64451;45.574;14.224;2023-02-02T03:49:03;26.08;;;9.82;;
75814;SDS011;64451;45.574;14.224;2023-02-02T03:51:04;20.58;;;8.75;;
75814;SDS011;64451;45.574;14.224;2023-02-02T03:53:08;36.17;;;9.60;;
75814;SDS011;64451;45.574;14.224;2023-02-02T03:55:08;23.40;;;11.57;;
75814;SDS011;64451;45.574;14.224;2023-02-02T03:57:09;31.45;;;11.18;;
75814;SDS011;64451;45.574;14.224;2023-02-02T03:59:09;19.45;;;10.23;;
75814;SDS011;64451;45.574;14.224;2023-02-02T04:01:10;41.95;;;11.75;;
75814;SDS011;64451;45.574;14.224;2023-02-02T04:03:11;27.63;;;12.60;;
75814;SDS011;64451;45.574;14.224;2023-02-02T04:05:12;46.00;;;13.73;;
75814;SDS011;64451;45.574;14.224;2023-02-02T04:07:12;34.78;;;11.75;;
75814;SDS011;64451;45.574;14.224;2023-02-02T04:09:12;35.95;;;11.50;;
75814;SDS011;64451;45.574;14.224;2023-02-02T04:11:13;34.47;;;9.07;;
75814;SDS011;64451;45.574;14.224;2023-02-02T04:13:13;24.17;;;9.80;;
75814;SDS011;64451;45.574;14.224;2023-02-02T04:15:16;25.67;;;10.48;;
75814;SDS011;64451;45.574;14.224;2023-02-02T04:17:17;49.75;;;10.00;;
75814;SDS011;64451;45.574;14.224;2023-02-02T04:19:17;18.50;;;9.45;;
75814;SDS011;64451;45.574;14.224;2023-02-02T04:21:17;25.90;;;11.55;;
75814;SDS011;64451;45.574;14.224;2023-02-02T04:23:18;26.88;;;9.93;;
75814;SDS011;64451;45.574;14.224;2023-02-02T04:25:18;21.42;;;10.30;;
75814;SDS011;64451;45.574;14.224;2023-02-02T04:27:18;22.80;;;11.57;;
75814;SDS011;64451;45.574;14.224;2023-02-02T04:29:19;20.17;;;9.88;;
75814;SDS011;64451;45.574;14.224;2023-02-02T04:31:19;26.15;;;11.05;;
75814;SDS011;64451;45.574;14.224;2023-02-02T04:33:20;23.45;;;8.75;;
75814;SDS011;64451;45.574;14.224;2023-02-02T04:35:22;30.85;;;12.00;;
75814;SDS011;64451;45.574;14.224;2023-02-02T04:37:22;22.35;;;11.90;;
75814;SDS011;64451;45.574;14.224;2023-02-02T04:39:22;28.63;;;11.07;;
75814;SDS011;64451;45.574;14.224;2023-02-02T04:41:23;25.27;;;10.77;;
75814;SDS011;64451;45.574;14.224;2023-02-02T04:43:23;36.30;;;11.25;;
75814;SDS011;64451;45.574;14.224;2023-02-02T04:45:24;31.15;;;8.63;;
75814;SDS011;64451;45.574;14.224;2023-02-02T04:47:24;21.55;;;9.38;;
75814;SDS011;64451;45.574;14.224;2023-02-02T04:49:24;52.47;;;8.68;;
75814;SDS011;64451;45.574;14.224;2023-02-02T04:51:25;19.45;;;8.93;;
75814;SDS011;64451;45.574;14.224;2023-02-02T04:53:25;37.92;;;10.60;;
75814;SDS011;64451;45.574;14.224;2023-02-02T04:55:26;34.88;;;9.90;;
75814;SDS011;64451;45.574;14.224;2023-02-02T04:57:26;26.67;;;10.77;;
75814;SDS011;64451;45.574;14.224;2023-02-02T04:59:27;34.65;;;9.38;;
75814;SDS011;64451;45.574;14.224;2023-02-02T05:01:29;22.83;;;10.10;;
75814;SDS011;64451;45.574;14.224;2023-02-02T05:03:30;23.85;;;9.13;;
75814;SDS011;64451;45.574;14.224;2023-02-02T05:05:30;25.10;;;10.43;;
75814;SDS011;64451;45.574;14.224;2023-02-02T05:07:30;23.98;;;9.40;;
75814;SDS011;64451;45.574;14.224;2023-02-02T05:09:31;31.50;;;11.40;;
75814;SDS011;64451;45.574;14.224;2023-02-02T05:11:31;27.42;;;11.98;;
75814;SDS011;64451;45.574;14.224;2023-02-02T05:13:31;28.30;;;11.50;;
75814;SDS011;64451;45.574;14.224;2023-02-02T05:15:32;36.47;;;13.93;;
75814;SDS011;64451;45.574;14.224;2023-02-02T05:17:33;23.20;;;10.93;;
75814;SDS011;64451;45.574;14.224;2023-02-02T05:19:33;35.55;;;12.23;;
75814;SDS011;64451;45.574;14.224;2023-02-02T05:21:33;45.83;;;12.90;;
75814;SDS011;64451;45.574;14.224;2023-02-02T05:23:34;37.90;;;11.48;;
75814;SDS011;64451;45.574;14.224;2023-02-02T05:25:34;25.17;;;11.88;;
75814;SDS011;64451;45.574;14.224;2023-02-02T05:27:34;25.70;;;10.70;;
75814;SDS011;64451;45.574;14.224;2023-02-02T05:29:35;36.70;;;12.60;;
75814;SDS011;64451;45.574;14.224;2023-02-02T05:31:35;31.35;;;13.43;;
75814;SDS011;64451;45.574;14.224;2023-02-02T05:33:36;30.73;;;11.68;;
75814;SDS011;64451;45.574;14.224;2023-02-02T05:35:36;35.42;;;11.10;;
75814;SDS011;64451;45.574;14.224;2023-02-02T05:37:37;32.83;;;14.80;;
75814;SDS011;64451;45.574;14.224;2023-02-02T05:39:37;25.83;;;12.60;;
75814;SDS011;64451;45.574;14.224;2023-02-02T05:41:37;27.30;;;13.20;;
75814;SDS011;64451;45.574;14.224;2023-02-02T05:43:38;41.53;;;14.52;;
75814;SDS011;64451;45.574;14.224;2023-02-02T05:45:38;31.77;;;13.43;;
75814;SDS011;64451;45.574;14.224;2023-02-02T05:47:39;28.35;;;13.20;;
75814;SDS011;64451;45.574;14.224;2023-02-02T05:49:39;28.45;;;13.40;;
75814;SDS011;64451;45.574;14.224;2023-02-02T05:51:41;32.30;;;11.00;;
75814;SDS011;64451;45.574;14.224;2023-02-02T05:53:43;25.88;;;11.73;;
75814;SDS011;64451;45.574;14.224;2023-02-02T05:55:44;23.30;;;9.90;;
75814;SDS011;64451;45.574;14.224;2023-02-02T05:57:44;19.75;;;7.00;;
75814;SDS011;64451;45.574;14.224;2023-02-02T05:59:45;27.25;;;10.38;;
75814;SDS011;64451;45.574;14.224;2023-02-02T06:01:46;24.02;;;11.20;;
75814;SDS011;64451;45.574;14.224;2023-02-02T06:03:47;28.92;;;13.02;;
75814;SDS011;64451;45.574;14.224;2023-02-02T06:05:47;24.95;;;8.77;;
75814;SDS011;64451;45.574;14.224;2023-02-02T06:07:48;13.27;;;8.60;;
75814;SDS011;64451;45.574;14.224;2023-02-02T06:09:48;27.33;;;12.50;;
75814;SDS011;64451;45.574;14.224;2023-02-02T06:11:48;44.65;;;13.43;;
75814;SDS011;64451;45.574;14.224;2023-02-02T06:13:51;17.48;;;10.65;;
75814;SDS011;64451;45.574;14.224;2023-02-02T06:15:52;33.20;;;10.50;;
75814;SDS011;64451;45.574;14.224;2023-02-02T06:17:52;27.17;;;11.57;;
75814;SDS011;64451;45.574;14.224;2023-02-02T06:19:52;27.95;;;12.40;;
75814;SDS011;64451;45.574;14.224;2023-02-02T06:21:53;22.88;;;12.02;;
75814;SDS011;64451;45.574;14.224;2023-02-02T06:23:53;24.48;;;11.95;;
75814;SDS011;64451;45.574;14.224;2023-02-02T06:25:53;34.53;;;12.23;;
75814;SDS011;64451;45.574;14.224;2023-02-02T06:27:54;46.40;;;11.95;;
75814;SDS011;64451;45.574;14.224;2023-02-02T06:29:58;31.17;;;12.15;;
75814;SDS011;64451;45.574;14.224;2023-02-02T06:31:59;34.80;;;15.20;;
75814;SDS011;64451;45.574;14.224;2023-02-02T06:33:59;32.35;;;12.13;;
75814;SDS011;64451;45.574;14.224;2023-02-02T06:36:03;35.17;;;12.45;;
75814;SDS011;64451;45.574;14.224;2023-02-02T06:38:05;35.63;;;12.82;;
75814;SDS011;64451;45.574;14.224;2023-02-02T06:40:05;28.27;;;13.38;;
75814;SDS011;64451;45.574;14.224;2023-02-02T06:42:07;34.67;;;14.95;;
75814;SDS011;64451;45.574;14.224;2023-02-02T06:44:07;26.30;;;12.90;;
75814;SDS011;64451;45.574;14.224;2023-02-02T06:46:08;25.65;;;12.25;;
75814;SDS011;64451;45.574;14.224;2023-02-02T06:48:08;46.10;;;13.23;;
75814;SDS011;64451;45.574;14.224;2023-02-02T06:50:11;37.13;;;13.95;;
75814;SDS011;64451;45.574;14.224;2023-02-02T06:52:12;28.42;;;12.73;;
75814;SDS011;64451;45.574;14.224;2023-02-02T06:54:12;44.55;;;13.35;;
75814;SDS011;64451;45.574;14.224;2023-02-02T06:56:12;41.45;;;12.25;;
75814;SDS011;64451;45.574;14.224;2023-02-02T06:58:13;29.85;;;11.90;;
75814;SDS011;64451;45.574;14.224;2023-02-02T07:00:13;22.88;;;11.48;;
75814;SDS011;64451;45.574;14.224;2023-02-02T07:02:14;21.90;;;10.15;;
75814;SDS011;64451;45.574;14.224;2023-02-02T07:04:17;30.17;;;14.20;;
75814;SDS011;64451;45.574;14.224;2023-02-02T07:06:19;32.75;;;10.90;;
75814;SDS011;64451;45.574;14.224;2023-02-02T07:08:21;24.05;;;10.07;;
75814;SDS011;64451;45.574;14.224;2023-02-02T07:10:22;57.35;;;13.68;;
75814;SDS011;64451;45.574;14.224;2023-02-02T07:12:22;26.90;;;12.35;;
75814;SDS011;64451;45.574;14.224;2023-02-02T07:14:23;23.02;;;12.18;;
75814;SDS011;64451;45.574;14.224;2023-02-02T07:16:23;29.13;;;13.40;;
75814;SDS011;64451;45.574;14.224;2023-02-02T07:18:24;33.25;;;11.13;;
75814;SDS011;64451;45.574;14.224;2023-02-02T07:20:24;22.90;;;10.55;;
75814;SDS011;64451;45.574;14.224;2023-02-02T07:22:25;20.67;;;9.93;;
75814;SDS011;64451;45.574;14.224;2023-02-02T07:24:25;30.13;;;12.52;;
75814;SDS011;64451;45.574;14.224;2023-02-02T07:26:26;24.05;;;9.93;;
75814;SDS011;64451;45.574;14.224;2023-02-02T07:28:27;18.73;;;9.85;;
75814;SDS011;64451;45.574;14.224;2023-02-02T07:30:28;27.67;;;13.32;;
75814;SDS011;64451;45.574;14.224;2023-02-02T07:32:28;18.67;;;10.07;;
75814;SDS011;64451;45.574;14.224;2023-02-02T07:34:29;27.10;;;9.32;;
75814;SDS011;64451;45.574;14.224;2023-02-02T07:36:29;29.52;;;10.70;;
75814;SDS011;64451;45.574;14.224;2023-02-02T07:38:29;30.50;;;12.13;;
75814;SDS011;64451;45.574;14.224;2023-02-02T07:40:30;19.45;;;8.95;;
75814;SDS011;64451;45.574;14.224;2023-02-02T07:42:30;55.22;;;22.90;;
75814;SDS011;64451;45.574;14.224;2023-02-02T07:44:30;27.23;;;11.90;;
75814;SDS011;64451;45.574;14.224;2023-02-02T07:46:31;28.90;;;13.63;;
75814;SDS011;64451;45.574;14.224;2023-02-02T07:48:31;34.00;;;13.48;;
75814;SDS011;64451;45.574;14.224;2023-02-02T07:50:32;36.20;;;16.42;;
75814;SDS011;64451;45.574;14.224;2023-02-02T07:52:32;31.98;;;13.88;;
75814;SDS011;64451;45.574;14.224;2023-02-02T07:54:32;34.67;;;15.13;;
75814;SDS011;64451;45.574;14.224;2023-02-02T07:56:34;32.92;;;15.85;;
75814;SDS011;64451;45.574;14.224;2023-02-02T07:58:36;36.38;;;14.38;;
75814;SDS011;64451;45.574;14.224;2023-02-02T08:00:37;40.67;;;15.32;;
75814;SDS011;64451;45.574;14.224;2023-02-02T08:02:37;45.05;;;15.40;;
75814;SDS011;64451;45.574;14.224;2023-02-02T08:04:37;31.45;;;14.23;;
75814;SDS011;64451;45.574;14.224;2023-02-02T08:06:38;32.92;;;14.73;;
75814;SDS011;64451;45.574;14.224;2023-02-02T08:08:39;46.10;;;17.48;;
75814;SDS011;64451;45.574;14.224;2023-02-02T08:10:45;52.63;;;14.57;;
75814;SDS011;64451;45.574;14.224;2023-02-02T08:12:47;35.17;;;17.80;;
75814;SDS011;64451;45.574;14.224;2023-02-02T08:14:47;34.95;;;17.05;;
75814;SDS011;64451;45.574;14.224;2023-02-02T08:16:47;37.55;;;16.88;;
75814;SDS011;64451;45.574;14.224;2023-02-02T08:18:48;39.40;;;15.32;;
75814;SDS011;64451;45.574;14.224;2023-02-02T08:20:49;46.97;;;16.58;;
75814;SDS011;64451;45.574;14.224;2023-02-02T08:22:51;33.73;;;17.50;;
75814;SDS011;64451;45.574;14.224;2023-02-02T08:24:51;71.45;;;18.10;;
75814;SDS011;64451;45.574;14.224;2023-02-02T08:26:51;43.33;;;18.10;;
75814;SDS011;64451;45.574;14.224;2023-02-02T08:28:53;46.13;;;16.75;;
75814;SDS011;64451;45.574;14.224;2023-02-02T08:30:55;53.10;;;16.70;;
75814;SDS011;64451;45.574;14.224;2023-02-02T08:32:55;87.50;;;20.52;;
75814;SDS011;64451;45.574;14.224;2023-02-02T08:34:56;42.30;;;19.35;;
75814;SDS011;64451;45.574;14.224;2023-02-02T08:36:56;44.17;;;19.90;;
75814;SDS011;64451;45.574;14.224;2023-02-02T08:39:03;42.33;;;19.38;;
75814;SDS011;64451;45.574;14.224;2023-02-02T08:41:06;42.40;;;20.17;;
75814;SDS011;64451;45.574;14.224;2023-02-02T08:43:07;50.35;;;19.65;;
75814;SDS011;64451;45.574;14.224;2023-02-02T08:45:08;53.85;;;19.05;;
75814;SDS011;64451;45.574;14.224;2023-02-02T08:47:08;57.58;;;20.05;;
75814;SDS011;64451;45.574;14.224;2023-02-02T08:49:09;36.88;;;20.23;;
75814;SDS011;64451;45.574;14.224;2023-02-02T08:51:14;37.67;;;17.25;;
75814;SDS011;64451;45.574;14.224;2023-02-02T08:53:17;54.30;;;24.40;;
75814;SDS011;64451;45.574;14.224;2023-02-02T08:55:17;46.08;;;23.30;;
75814;SDS011;64451;45.574;14.224;2023-02-02T08:57:18;58.65;;;25.77;;
75814;SDS011;64451;45.574;14.224;2023-02-02T08:59:18;58.10;;;26.00;;
75814;SDS011;64451;45.574;14.224;2023-02-02T09:01:20;66.20;;;23.85;;
75814;SDS011;64451;45.574;14.224;2023-02-02T09:03:27;74.82;;;25.52;;
75814;SDS011;64451;45.574;14.224;2023-02-02T09:05:27;71.53;;;25.60;;
75814;SDS011;64451;45.574;14.224;2023-02-02T09:07:27;59.70;;;23.52;;
75814;SDS011;64451;45.574;14.224;2023-02-02T09:09:28;57.42;;;24.55;;
75814;SDS011;64451;45.574;14.224;2023-02-02T09:11:28;63.20;;;23.42;;
75814;SDS011;64451;45.574;14.224;2023-02-02T09:13:29;57.95;;;25.88;;
75814;SDS011;64451;45.574;14.224;2023-02-02T09:15:29;50.20;;;22.05;;
75814;SDS011;64451;45.574;14.224;2023-02-02T09:17:30;43.47;;;22.48;;
75814;SDS011;64451;45.574;14.224;2023-02-02T09:19:30;67.82;;;25.38;;
75814;SDS011;64451;45.574;14.224;2023-02-02T09:21:30;45.13;;;20.05;;
75814;SDS011;64451;45.574;14.224;2023-02-02T09:23:36;41.22;;;18.05;;
75814;SDS011;64451;45.574;14.224;2023-02-02T09:25:38;49.35;;;23.67;;
75814;SDS011;64451;45.574;14.224;2023-02-02T09:27:38;37.25;;;19.20;;
75814;SDS011;64451;45.574;14.224;2023-02-02T09:29:40;48.33;;;17.15;;
75814;SDS011;64451;45.574;14.224;2023-02-02T09:31:40;53.92;;;19.30;;
75814;SDS011;64451;45.574;14.224;2023-02-02T09:33:41;39.08;;;17.40;;
75814;SDS011;64451;45.574;14.224;2023-02-02T09:35:41;49.00;;;19.73;;
75814;SDS011;64451;45.574;14.224;2023-02-02T09:37:42;50.35;;;21.25;;
75814;SDS011;64451;45.574;14.224;2023-02-02T09:39:44;70.00;;;22.73;;
75814;SDS011;64451;45.574;14.224;2023-02-02T09:41:56;57.67;;;20.02;;
75814;SDS011;64451;45.574;14.224;2023-02-02T09:46:17;53.40;;;20.50;;
75814;SDS011;64451;45.574;14.224;2023-02-02T09:50:50;46.05;;;18.13;;
75814;SDS011;64451;45.574;14.224;2023-02-02T09:52:59;45.97;;;20.02;;
75814;SDS011;64451;45.574;14.224;2023-02-02T09:55:04;46.95;;;20.92;;
75814;SDS011;64451;45.574;14.224;2023-02-02T09:57:21;45.80;;;20.35;;
75814;SDS011;64451;45.574;14.224;2023-02-02T09:59:29;44.83;;;17.67;;
75814;SDS011;64451;45.574;14.224;2023-02-02T10:01:35;40.53;;;17.63;;
75814;SDS011;64451;45.574;14.224;2023-02-02T10:04:01;51.33;;;21.83;;
75814;SDS011;64451;45.574;14.224;2023-02-02T10:08:29;49.78;;;19.85;;
75814;SDS011;64451;45.574;14.224;2023-02-02T10:10:36;44.70;;;19.40;;
75814;SDS011;64451;45.574;14.224;2023-02-02T10:12:52;42.53;;;21.15;;
75814;SDS011;64451;45.574;14.224;2023-02-02T10:14:56;54.83;;;17.83;;
75814;SDS011;64451;45.574;14.224;2023-02-02T10:17:02;56.00;;;21.38;;
75814;SDS011;64451;45.574;14.224;2023-02-02T10:19:14;58.83;;;22.50;;
75814;SDS011;64451;45.574;14.224;2023-02-02T10:21:25;50.65;;;19.65;;
75814;SDS011;64451;45.574;14.224;2023-02-02T10:23:33;54.33;;;20.83;;
75814;SDS011;64451;45.574;14.224;2023-02-02T10:25:36;45.17;;;20.55;;
75814;SDS011;64451;45.574;14.224;2023-02-02T10:27:45;49.72;;;21.45;;
75814;SDS011;64451;45.574;14.224;2023-02-02T10:30:05;43.35;;;18.98;;
75814;SDS011;64451;45.574;14.224;2023-02-02T10:32:26;50.88;;;18.95;;
75814;SDS011;64451;45.574;14.224;2023-02-02T10:37:01;48.70;;;19.55;;
75814;SDS011;64451;45.574;14.224;2023-02-02T10:39:03;49.72;;;22.42;;
75814;SDS011;64451;45.574;14.224;2023-02-02T10:41:48;45.08;;;19.73;;
75814;SDS011;64451;45.574;14.224;2023-02-02T10:45:46;54.97;;;18.77;;
75814;SDS011;64451;45.574;14.224;2023-02-02T10:47:49;46.88;;;21.30;;
75814;SDS011;64451;45.574;14.224;2023-02-02T10:49:53;53.60;;;24.05;;
75814;SDS011;64451;45.574;14.224;2023-02-02T10:52:21;49.78;;;21.83;;
75814;SDS011;64451;45.574;14.224;2023-02-02T10:54:41;45.50;;;19.02;;
75814;SDS011;64451;45.574;14.224;2023-02-02T10:56:44;42.60;;;18.88;;
75814;SDS011;64451;45.574;14.224;2023-02-02T11:01:01;59.70;;;21.25;;
75814;SDS011;64451;45.574;14.224;2023-02-02T11:03:03;50.75;;;19.20;;
75814;SDS011;64451;45.574;14.224;2023-02-02T11:05:10;41.03;;;19.17;;
75814;SDS011;64451;45.574;14.224;2023-02-02T11:07:33;43.00;;;19.00;;
75814;SDS011;64451;45.574;14.224;2023-02-02T11:09:37;43.33;;;20.20;;
75814;SDS011;64451;45.574;14.224;2023-02-02T11:11:42;46.13;;;22.38;;
75814;SDS011;64451;45.574;14.224;2023-02-02T11:18:34;41.70;;;18.00;;
75814;SDS011;64451;45.574;14.224;2023-02-02T11:20:34;76.80;;;27.23;;
75814;SDS011;64451;45.574;14.224;2023-02-02T11:22:37;41.33;;;18.73;;
75814;SDS011;64451;45.574;14.224;2023-02-02T11:24:45;57.65;;;25.48;;
75814;SDS011;64451;45.574;14.224;2023-02-02T11:29:00;51.38;;;22.98;;
75814;SDS011;64451;45.574;14.224;2023-02-02T11:31:01;48.75;;;21.98;;
75814;SDS011;64451;45.574;14.224;2023-02-02T11:33:25;47.42;;;21.48;;
75814;SDS011;64451;45.574;14.224;2023-02-02T11:35:27;48.67;;;22.25;;
75814;SDS011;64451;45.574;14.224;2023-02-02T11:37:31;51.05;;;21.00;;
75814;SDS011;64451;45.574;14.224;2023-02-02T11:41:33;53.97;;;21.45;;
75814;SDS011;64451;45.574;14.224;2023-02-02T11:43:36;51.40;;;21.50;;
75814;SDS011;64451;45.574;14.224;2023-02-02T11:45:41;51.85;;;21.52;;
75814;SDS011;64451;45.574;14.224;2023-02-02T11:47:43;48.22;;;22.25;;
75814;SDS011;64451;45.574;14.224;2023-02-02T11:49:44;53.28;;;23.38;;
75814;SDS011;64451;45.574;14.224;2023-02-02T11:51:58;52.80;;;23.50;;
75814;SDS011;64451;45.574;14.224;2023-02-02T11:54:04;52.15;;;22.55;;
75814;SDS011;64451;45.574;14.224;2023-02-02T11:56:32;49.25;;;22.13;;
75814;SDS011;64451;45.574;14.224;2023-02-02T12:00:50;57.75;;;23.77;;
75814;SDS011;64451;45.574;14.224;2023-02-02T12:02:54;53.60;;;24.35;;
75814;SDS011;64451;45.574;14.224;2023-02-02T12:05:40;56.47;;;24.00;;
75814;SDS011;64451;45.574;14.224;2023-02-02T12:07:25;75.28;;;29.98;;
75814;SDS011;64451;45.574;14.224;2023-02-02T12:09:27;54.75;;;24.27;;
75814;SDS011;64451;45.574;14.224;2023-02-02T12:11:32;66.13;;;26.85;;
75814;SDS011;64451;45.574;14.224;2023-02-02T12:13:59;51.35;;;23.75;;
75814;SDS011;64451;45.574;14.224;2023-02-02T12:18:56;64.75;;;27.00;;
75814;SDS011;64451;45.574;14.224;2023-02-02T12:21:04;51.55;;;22.63;;
75814;SDS011;64451;45.574;14.224;2023-02-02T12:23:35;62.05;;;25.08;;
75814;SDS011;64451;45.574;14.224;2023-02-02T12:30:36;53.25;;;22.85;;
75814;SDS011;64451;45.574;14.224;2023-02-02T12:35:27;54.42;;;21.90;;
75814;SDS011;64451;45.574;14.224;2023-02-02T12:42:32;56.22;;;21.50;;
75814;SDS011;64451;45.574;14.224;2023-02-02T12:59:22;44.13;;;17.83;;
75814;SDS011;64451;45.574;14.224;2023-02-02T13:01:38;37.72;;;16.77;;
75814;SDS011;64451;45.574;14.224;2023-02-02T13:04:08;45.80;;;17.83;;
75814;SDS011;64451;45.574;14.224;2023-02-02T13:09:21;47.30;;;20.40;;
75814;SDS011;64451;45.574;14.224;2023-02-02T13:11:45;65.63;;;33.67;;
75814;SDS011;64451;45.574;14.224;2023-02-02T13:13:49;52.97;;;21.15;;
75814;SDS011;64451;45.574;14.224;2023-02-02T13:15:51;48.85;;;24.35;;
75814;SDS011;64451;45.574;14.224;2023-02-02T13:17:57;52.70;;;20.38;;